Time;durP1;ratioP1;P1;durP2;ratioP2;P2;SDS_P1;SDS_P2;PMS_P1;PMS_P2;Temp;Humidity;BMP_temperature;BMP_pressure;BME280_temperature;BME280_humidity;BME280_pressure;Samples;Min_cycle;Max_cycle;Signal;HPM_P1;HPM_P2
2022/10/05 00:00:52;;;;;;;3.60;0.98;;;15.90;99.90;;;15.21;100.00;101481.78;5073085;23;20463;-75
2022/10/05 00:02:54;;;;;;;3.08;1.08;;;15.90;99.90;;;15.25;100.00;101483.13;5098597;23;20009;-75
2022/10/05 00:04:56;;;;;;;2.33;1.08;;;15.90;99.90;;;15.22;100.00;101475.47;5098770;23;20029;-75
2022/10/05 00:07:07;;;;;;;2.58;1.10;;;15.90;99.90;;;15.22;100.00;101464.00;5072754;23;20010;-75
2022/10/05 00:09:19;;;;;;;1.95;0.82;;;15.90;99.90;;;15.26;100.00;101482.09;5074124;23;20010;-75
2022/10/05 00:11:20;;;;;;;1.42;0.70;;;16.00;99.90;;;15.25;100.00;101471.66;5073397;23;20006;-75
2022/10/05 00:13:28;;;;;;;1.70;0.80;;;15.90;99.90;;;15.23;100.00;101465.69;5072912;23;20017;-75
2022/10/05 00:15:29;;;;;;;2.92;1.00;;;15.90;99.90;;;15.25;100.00;101467.19;5048697;23;20042;-75
2022/10/05 00:17:30;;;;;;;2.75;0.70;;;15.90;99.90;;;15.21;100.00;101465.84;5072354;23;20034;-76
2022/10/05 00:19:37;;;;;;;3.15;0.80;;;15.90;99.90;;;15.25;100.00;101469.84;5073211;23;20049;-76
2022/10/05 00:21:38;;;;;;;2.33;0.80;;;15.90;99.90;;;15.23;100.00;101468.34;5073127;23;20410;-75
2022/10/05 00:23:40;;;;;;;1.65;0.90;;;15.90;99.90;;;15.23;100.00;101468.34;5072861;23;20053;-76
2022/10/05 00:25:41;;;;;;;3.30;0.90;;;15.90;99.90;;;15.20;100.00;101460.72;5098687;23;20031;-75
2022/10/05 00:27:44;;;;;;;2.83;0.85;;;15.90;99.90;;;15.20;100.00;101458.84;5073219;23;20038;-75
2022/10/05 00:29:47;;;;;;;2.33;0.95;;;15.90;99.90;;;15.20;100.00;101448.22;5073321;23;20010;-75
2022/10/05 00:31:49;;;;;;;3.47;1.33;;;15.90;99.90;;;15.20;100.00;101453.53;5072594;23;20347;-75
2022/10/05 00:33:50;;;;;;;3.35;1.00;;;15.90;99.90;;;15.17;100.00;101450.41;5098787;23;20005;-75
2022/10/05 00:35:51;;;;;;;2.78;1.13;;;15.90;99.90;;;15.23;100.00;101453.19;5048195;23;20367;-76
2022/10/05 00:37:54;;;;;;;1.98;0.73;;;15.90;99.90;;;15.25;100.00;101455.69;5072702;23;20010;-76
2022/10/05 00:39:55;;;;;;;2.75;1.08;;;15.90;99.90;;;15.23;100.00;101445.22;5072827;23;20045;-76
2022/10/05 00:42:18;;;;;;;1.88;1.13;;;15.90;99.90;;;15.25;100.00;101447.72;5072778;23;20045;-76
2022/10/05 00:44:47;;;;;;;4.35;1.10;;;15.90;99.90;;;15.26;100.00;101450.22;5073286;23;20013;-76
2022/10/05 00:47:31;;;;;;;1.90;1.50;;;15.90;99.90;;;15.23;100.00;101442.56;5074005;23;20435;-75
2022/10/05 00:50:16;;;;;;;2.33;1.05;;;15.90;99.90;;;15.23;100.00;101441.75;5039215;23;20041;-75
2022/10/05 00:52:47;;;;;;;3.03;1.33;;;16.00;99.90;;;15.23;100.00;101436.44;5074398;23;20006;-75
2022/10/05 00:55:17;;;;;;;3.33;1.00;;;15.90;99.90;;;15.22;100.00;101442.75;5074262;23;20057;-75
2022/10/05 00:57:47;;;;;;;3.78;0.90;;;15.90;99.90;;;15.24;100.00;101448.72;5073034;23;20010;-76
2022/10/05 01:00:11;;;;;;;2.88;1.40;;;16.00;99.90;;;15.24;100.00;101452.22;5072713;23;20037;-75
2022/10/05 01:02:22;;;;;;;1.50;1.05;;;15.90;99.90;;;15.22;100.00;101446.25;5073806;23;20034;-76
2022/10/05 01:04:34;;;;;;;1.55;1.02;;;15.90;99.90;;;15.22;100.00;101448.91;5072697;23;20010;-75
2022/10/05 01:06:49;;;;;;;2.55;0.90;;;16.00;99.90;;;15.25;100.00;101448.56;5072713;23;20005;-75
2022/10/05 01:09:13;;;;;;;3.40;0.93;;;15.90;99.90;;;15.25;100.00;101445.91;5074060;23;20010;-75
2022/10/05 01:11:48;;;;;;;5.65;1.10;;;16.00;99.90;;;15.21;100.00;101438.44;5074226;23;20489;-76
2022/10/05 01:14:04;;;;;;;3.38;1.63;;;15.90;99.90;;;15.16;100.00;101433.63;5096186;23;20009;-75
2022/10/05 01:16:29;;;;;;;2.17;1.00;;;15.90;99.90;;;15.24;100.00;101454.88;5072428;23;20324;-75
2022/10/05 01:18:46;;;;;;;4.90;1.38;;;15.90;99.90;;;15.23;100.00;101450.53;5072139;23;20006;-76
2022/10/05 01:20:58;;;;;;;2.85;1.35;;;15.90;99.90;;;15.26;100.00;101436.91;5072269;23;20061;-75
2022/10/05 01:23:38;;;;;;;2.65;1.08;;;15.90;99.90;;;15.28;100.00;101434.94;5074038;23;20009;-75
2022/10/05 01:26:06;;;;;;;4.45;1.10;;;16.00;99.90;;;15.26;100.00;101434.25;5072369;23;20438;-75
2022/10/05 01:28:34;;;;;;;1.55;0.98;;;16.00;99.90;;;15.27;100.00;101429.78;5074151;23;20002;-76
2022/10/05 01:31:04;;;;;;;2.30;1.10;;;16.00;99.90;;;15.26;100.00;101431.59;5072811;23;20473;-75
2022/10/05 01:33:17;;;;;;;3.03;1.20;;;16.00;99.90;;;15.29;100.00;101427.78;5051572;23;20017;-75
2022/10/05 01:35:55;;;;;;;1.85;1.15;;;16.00;99.90;;;15.28;100.00;101421.66;5072596;23;20060;-76
2022/10/05 01:38:45;;;;;;;2.13;1.10;;;15.90;99.90;;;15.27;100.00;101414.66;5048002;23;20081;-75
2022/10/05 01:41:26;;;;;;;1.48;1.00;;;16.00;99.90;;;15.28;100.00;101416.34;5023275;23;20006;-75
2022/10/05 01:43:35;;;;;;;2.22;1.08;;;16.00;99.90;;;15.28;100.00;101413.66;5043348;23;20427;-76
2022/10/05 01:45:57;;;;;;;2.75;1.33;;;16.00;99.90;;;15.30;100.00;101414.31;5047889;23;20007;-76
2022/10/05 01:48:15;;;;;;;4.57;1.35;;;16.00;99.90;;;15.28;100.00;101405.69;5049345;23;20454;-75
2022/10/05 01:50:39;;;;;;;1.92;1.08;;;16.00;99.90;;;15.31;100.00;101402.69;5048252;23;20070;-75
2022/10/05 01:53:25;;;;;;;4.68;0.82;;;16.00;99.90;;;15.37;100.00;101399.34;5049609;23;20010;-76
2022/10/05 01:56:07;;;;;;;2.85;1.02;;;16.00;99.90;;;15.33;100.00;101400.69;5046323;23;20049;-75
2022/10/05 01:58:39;;;;;;;3.03;1.10;;;16.00;99.90;;;15.34;100.00;101396.22;5049616;23;20014;-75
2022/10/05 02:00:57;;;;;;;2.47;1.15;;;16.10;99.90;;;15.37;100.00;101398.53;5048371;23;20006;-76
2022/10/05 02:03:23;;;;;;;2.50;1.38;;;16.10;99.90;;;15.34;100.00;101383.75;5049257;23;20085;-75
2022/10/05 02:05:36;;;;;;;4.75;1.50;;;16.10;99.90;;;15.34;100.00;101383.75;5047943;23;20034;-75
2022/10/05 02:08:00;;;;;;;3.15;1.10;;;16.10;99.90;;;15.34;100.00;101388.22;5024910;23;20007;-76
2022/10/05 02:10:31;;;;;;;2.40;1.10;;;16.10;99.90;;;15.35;100.00;101384.59;5048266;23;20034;-75
2022/10/05 02:12:36;;;;;;;1.90;1.02;;;16.00;99.90;;;15.31;100.00;101370.81;5006850;23;20006;-75
2022/10/05 02:14:43;;;;;;;2.97;1.13;;;16.00;99.90;;;15.36;100.00;101378.25;5048188;23;20049;-75
2022/10/05 02:16:47;;;;;;;2.70;1.00;;;16.00;99.90;;;15.35;100.00;101369.44;5048032;23;20062;-75
2022/10/05 02:18:58;;;;;;;;;;;16.10;99.90;;;15.33;100.00;101373.28;5048587;23;20077;-75
2022/10/05 02:21:01;;;;;;;3.13;1.00;;;16.10;99.90;;;15.35;100.00;101368.63;5048201;23;19905;-75
2022/10/05 02:23:10;;;;;;;2.67;1.07;;;16.00;99.90;;;15.34;100.00;101367.81;5048292;23;20011;-75
2022/10/05 02:25:26;;;;;;;3.78;1.00;;;16.10;99.90;;;15.38;100.00;101368.28;5048065;23;20226;-75
2022/10/05 02:27:35;;;;;;;1.38;0.98;;;16.10;99.90;;;15.37;100.00;101364.78;5047767;23;20002;-75
2022/10/05 02:29:44;;;;;;;5.30;1.33;;;16.10;99.90;;;15.35;100.00;101353.47;5049647;23;20081;-76
2022/10/05 02:32:06;;;;;;;2.55;1.02;;;16.10;99.90;;;15.40;100.00;101353.81;5025836;23;20007;-75
2022/10/05 02:34:41;;;;;;;4.57;1.55;;;16.10;99.90;;;15.37;100.00;101348.84;5072299;23;20057;-75
2022/10/05 02:36:43;;;;;;;3.38;1.13;;;16.10;99.90;;;15.38;100.00;101353.16;5015927;23;20018;-75
2022/10/05 02:39:19;;;;;;;2.85;1.35;;;16.10;99.90;;;15.37;100.00;101342.69;5073702;23;20093;-75
2022/10/05 02:41:50;;;;;;;2.35;1.20;;;16.10;99.90;;;15.45;100.00;101340.84;5051272;23;20002;-75
2022/10/05 02:44:30;;;;;;;3.25;1.08;;;16.10;99.90;;;15.44;100.00;101335.69;5074926;23;20005;-75
2022/10/05 02:47:08;;;;;;;2.20;1.15;;;16.10;99.90;;;15.50;100.00;101335.84;5074870;23;20041;-75
2022/10/05 02:49:40;;;;;;;3.13;0.85;;;16.20;99.90;;;15.46;100.00;101331.03;5053780;23;20010;-76
2022/10/05 02:52:08;;;;;;;1.27;0.75;;;16.20;99.90;;;15.49;100.00;101331.53;5073539;23;20037;-75
2022/10/05 02:54:37;;;;;;;1.65;1.05;;;16.20;99.90;;;15.48;100.00;101329.03;5097830;23;20009;-75
2022/10/05 02:57:04;;;;;;;3.53;0.85;;;16.20;99.90;;;15.52;100.00;101330.38;5073614;23;20017;-76
2022/10/05 02:59:44;;;;;;;3.38;1.35;;;16.20;99.90;;;15.51;100.00;101326.03;5073584;23;20070;-75
2022/10/05 03:02:15;;;;;;;1.52;0.88;;;16.20;99.90;;;15.55;100.00;101321.22;5074718;23;20400;-75
2022/10/05 03:04:56;;;;;;;3.55;0.93;;;16.30;99.90;;;15.67;100.00;101325.97;5074990;23;20025;-75
2022/10/05 03:07:23;;;;;;;2.97;1.30;;;16.30;99.90;;;15.66;100.00;101321.63;5073829;23;20347;-75
2022/10/05 03:09:35;;;;;;;2.15;1.25;;;16.30;99.90;;;15.66;100.00;101318.16;5075328;23;20006;-76
2022/10/05 03:11:46;;;;;;;2.63;1.00;;;16.30;99.90;;;15.65;100.00;101319.97;5075140;23;20010;-76
2022/10/05 03:14:17;;;;;;;3.03;0.82;;;16.30;99.90;;;15.66;100.00;101323.47;5075057;23;20132;-75
2022/10/05 03:17:12;;;;;;;2.70;1.00;;;16.30;99.90;;;15.70;100.00;101311.47;5074567;23;20065;-75
2022/10/05 03:19:50;;;;;;;1.80;1.00;;;16.40;99.90;;;15.68;100.00;101306.31;5051005;23;20016;-75
2022/10/05 03:22:12;;;;;;;3.42;1.13;;;16.30;99.90;;;15.64;100.00;101299.72;5074887;23;20002;-76
2022/10/05 03:24:46;;;;;;;2.83;1.25;;;16.30;99.90;;;15.65;100.00;101293.38;5074835;23;20036;-75
2022/10/05 03:27:11;;;;;;;4.00;0.97;;;16.30;99.90;;;15.63;100.00;101299.88;5073385;23;20013;-76
2022/10/05 03:29:43;;;;;;;3.15;1.65;;;16.30;99.90;;;15.60;100.00;101284.28;5075289;23;20120;-75
2022/10/05 03:32:06;;;;;;;2.72;1.10;;;16.30;99.90;;;15.59;100.00;101290.63;5072988;23;20529;-75
2022/10/05 03:34:24;;;;;;;2.83;1.05;;;16.30;99.90;;;15.60;100.00;101289.59;5073640;23;20010;-75
2022/10/05 03:36:55;;;;;;;2.08;1.10;;;16.30;99.90;;;15.55;100.00;101289.31;5050205;23;20101;-76
2022/10/05 03:39:23;;;;;;;2.10;1.00;;;16.30;99.90;;;15.62;100.00;101290.25;5073743;23;20045;-75
2022/10/05 03:41:40;;;;;;;3.25;0.93;;;16.30;99.90;;;15.58;100.00;101291.59;5074593;23;20010;-75
2022/10/05 03:44:08;;;;;;;4.32;1.17;;;16.30;99.90;;;15.56;100.00;101288.31;5074749;23;20037;-75
2022/10/05 03:46:50;;;;;;;2.17;0.90;;;16.30;99.90;;;15.56;100.00;101293.63;5072970;23;20017;-75
2022/10/05 03:49:00;;;;;;;5.20;1.20;;;16.30;99.90;;;15.54;100.00;101288.47;5074682;23;20017;-76
2022/10/05 03:51:06;;;;;;;3.17;1.20;;;16.20;99.90;;;15.53;100.00;101280.69;5073287;23;20006;-75
2022/10/05 03:53:22;;;;;;;2.17;1.10;;;16.20;99.90;;;15.54;100.00;101279.66;5073291;23;20096;-75
2022/10/05 03:55:52;;;;;;;4.30;1.50;;;16.20;99.90;;;15.55;100.00;101281.31;5073289;23;20013;-75
2022/10/05 03:57:58;;;;;;;3.22;1.00;;;16.20;99.90;;;15.56;100.00;101272.34;5074282;23;20006;-75
2022/10/05 04:00:27;;;;;;;3.47;1.20;;;16.30;99.90;;;15.56;100.00;101270.50;5073300;23;20010;-75
2022/10/05 04:02:39;;;;;;;2.97;1.25;;;16.30;99.90;;;15.57;100.00;101268.66;5074325;23;20002;-76
2022/10/05 04:05:04;;;;;;;4.00;1.10;;;16.20;99.90;;;15.57;100.00;101269.50;5073227;23;20065;-76
2022/10/05 04:07:19;;;;;;;2.65;0.90;;;16.30;99.90;;;15.55;100.00;101263.53;5072830;23;20014;-75
2022/10/05 04:09:38;;;;;;;5.85;1.77;;;16.30;99.90;;;15.59;100.00;101262.16;5073298;23;20010;-76
2022/10/05 04:11:53;;;;;;;2.88;1.27;;;16.20;99.90;;;15.56;100.00;101262.50;5074501;23;20014;-75
2022/10/05 04:14:03;;;;;;;2.97;1.08;;;16.30;99.90;;;15.57;100.00;101260.69;5073077;23;20033;-75
2022/10/05 04:16:13;;;;;;;2.45;1.13;;;16.30;99.90;;;15.56;100.00;101265.19;5072587;23;20013;-75
2022/10/05 04:18:38;;;;;;;4.18;1.33;;;16.20;99.90;;;15.63;100.00;101273.28;5072653;23;20029;-76
2022/10/05 04:20:47;;;;;;;1.95;1.25;;;16.30;99.90;;;15.57;100.00;101263.34;5073018;23;20044;-76
2022/10/05 04:23:10;;;;;;;5.22;1.52;;;16.30;99.90;;;15.58;100.00;101270.34;5073034;23;20009;-75
2022/10/05 04:25:26;;;;;;;3.60;1.10;;;16.30;99.90;;;15.53;100.00;101260.22;5074476;23;20057;-75
2022/10/05 04:27:46;;;;;;;3.88;1.38;;;16.30;99.90;;;15.59;100.00;101267.47;5072702;23;20006;-76
2022/10/05 04:29:58;;;;;;;3.67;1.20;;;16.30;99.90;;;15.62;100.00;101266.34;5074517;23;20430;-75
2022/10/05 04:32:35;;;;;;;5.03;1.48;;;16.30;99.90;;;15.60;100.00;101261.16;5072572;23;20057;-76
2022/10/05 04:35:09;;;;;;;1.80;1.00;;;16.30;99.90;;;15.61;100.00;101262.00;5074434;23;20490;-76
2022/10/05 04:37:53;;;;;;;6.50;1.33;;;16.30;99.90;;;15.67;100.00;101266.63;5072726;23;20053;-76
2022/10/05 04:40:24;;;;;;;3.50;1.58;;;16.30;99.90;;;15.66;100.00;101262.28;5073574;23;20431;-75
2022/10/05 04:42:44;;;;;;;2.47;1.20;;;16.30;99.90;;;15.64;100.00;101259.00;5074402;23;20002;-75
2022/10/05 04:45:13;;;;;;;3.45;1.40;;;16.40;99.90;;;15.67;100.00;101255.97;5073148;23;20002;-75
2022/10/05 04:47:50;;;;;;;2.63;1.45;;;16.40;99.90;;;15.68;100.00;101255.78;5072534;23;20014;-75
2022/10/05 04:50:17;;;;;;;4.38;1.60;;;16.40;99.90;;;15.69;100.00;101254.78;5073021;23;20373;-76
2022/10/05 04:52:38;;;;;;;3.33;1.40;;;16.40;99.90;;;15.70;100.00;101261.78;5072058;23;20394;-76
2022/10/05 04:55:28;;;;;;;6.43;1.73;;;16.40;99.90;;;15.79;100.00;101265.22;5072692;23;20010;-76
2022/10/05 04:58:11;;;;;;;3.50;1.70;;;16.50;99.90;;;15.79;100.00;101265.22;5052958;23;20085;-76
2022/10/05 05:00:59;;;;;;;3.88;1.25;;;16.40;99.90;;;15.82;100.00;101265.69;5074132;23;20056;-75
2022/10/05 05:03:43;;;;;;;5.65;1.45;;;16.50;99.90;;;15.83;100.00;101264.66;5073800;23;20434;-76
2022/10/05 05:06:16;;;;;;;5.70;1.58;;;16.50;99.90;;;15.85;100.00;101261.84;5074022;23;20012;-76
2022/10/05 05:08:58;;;;;;;3.13;1.25;;;16.50;99.90;;;15.75;100.00;101262.06;5074057;23;20097;-76
2022/10/05 05:11:19;;;;;;;3.38;1.52;;;16.50;99.90;;;15.76;100.00;101253.09;5041912;23;20041;-76
2022/10/05 05:13:54;;;;;;;2.92;1.63;;;16.50;99.90;;;15.81;100.00;101263.19;5049225;23;20459;-75
2022/10/05 05:16:17;;;;;;;4.63;1.58;;;16.50;99.90;;;15.89;100.00;101265.78;5074011;23;20010;-75
2022/10/05 05:18:36;;;;;;;3.10;1.75;;;16.50;99.90;;;15.83;100.00;101256.69;5072675;23;20017;-76
2022/10/05 05:20:55;;;;;;;4.60;1.80;;;16.60;99.90;;;15.80;100.00;101257.03;5073911;23;20006;-75
2022/10/05 05:23:15;;;;;;;4.30;1.65;;;16.50;99.90;;;15.81;100.00;101263.19;5074065;23;20076;-75
2022/10/05 05:25:46;;;;;;;3.53;1.85;;;16.50;99.90;;;15.83;100.00;101258.53;5073972;23;20033;-76
2022/10/05 05:27:56;;;;;;;4.15;1.50;;;16.50;99.90;;;15.83;100.00;101258.53;5074077;23;20009;-76
2022/10/05 05:30:17;;;;;;;5.60;1.98;;;16.50;99.90;;;15.79;100.00;101241.28;5072575;23;20070;-75
2022/10/05 05:32:57;;;;;;;5.88;1.77;;;16.50;99.90;;;15.82;100.00;101257.72;5072588;23;20006;-76
2022/10/05 05:35:13;;;;;;;4.80;2.17;;;16.50;99.90;;;15.87;100.00;101257.16;5073949;23;20469;-76
2022/10/05 05:38:01;;;;;;;3.92;1.52;;;16.50;99.90;;;15.84;100.00;101263.66;5093198;23;20081;-76
2022/10/05 05:40:32;;;;;;;3.67;1.60;;;16.50;99.90;;;15.81;100.00;101255.22;5098324;23;20005;-76
2022/10/05 05:42:41;;;;;;;5.72;2.03;;;16.50;99.90;;;15.87;100.00;101259.81;5075719;23;20010;-76
2022/10/05 05:44:52;;;;;;;4.22;1.77;;;16.50;99.90;;;15.82;100.00;101256.88;5098282;23;20009;-75
2022/10/05 05:47:02;;;;;;;2.38;1.48;;;16.50;99.90;;;15.79;100.00;101254.56;5072229;23;20395;-76
2022/10/05 05:49:50;;;;;;;6.82;2.30;;;16.50;99.90;;;15.76;100.00;101247.78;5098302;23;20002;-76
2022/10/05 05:52:02;;;;;;;4.82;1.88;;;16.40;99.90;;;15.72;100.00;101245.63;5036236;23;20096;-76
2022/10/05 05:54:15;;;;;;;5.28;2.50;;;16.50;99.90;;;15.78;100.00;101255.56;5098256;23;20001;-76
2022/10/05 05:56:25;;;;;;;2.88;1.70;;;16.50;99.90;;;15.72;100.00;101248.28;5098212;23;20002;-75
2022/10/05 05:58:52;;;;;;;4.78;2.03;;;16.40;99.90;;;15.67;100.00;101248.84;5073596;23;20002;-76
2022/10/05 06:01:24;;;;;;;3.22;1.50;;;16.40;99.90;;;15.75;100.00;101258.56;5073415;23;20008;-76
2022/10/05 06:03:38;;;;;;;3.28;2.20;;;16.40;99.90;;;15.74;100.00;101256.94;5084492;23;20341;-76
2022/10/05 06:05:51;;;;;;;;;;;16.40;99.90;;;15.70;100.00;101275.09;5099861;23;20012;-76
2022/10/05 06:07:54;;;;;;;5.18;2.25;;;16.40;99.90;;;15.70;100.00;101261.78;5073895;23;19905;-76
2022/10/05 06:10:37;;;;;;;3.30;1.95;;;16.40;99.90;;;15.73;100.00;101271.25;5099895;23;20449;-76
2022/10/05 06:12:44;;;;;;;3.85;1.92;;;16.50;99.90;;;15.65;100.00;101266.78;5091848;23;20056;-76
2022/10/05 06:14:46;;;;;;;3.80;1.80;;;16.40;99.90;;;15.70;100.00;101279.56;5074431;23;20009;-76
2022/10/05 06:17:15;;;;;;;5.65;2.30;;;16.40;99.90;;;15.72;100.00;101277.56;5049220;23;20007;-76
2022/10/05 06:19:20;;;;;;;5.90;1.98;;;16.40;99.90;;;15.74;100.00;101280.88;5084838;23;20033;-76
2022/10/05 06:21:54;;;;;;;4.43;2.10;;;16.40;99.90;;;15.72;100.00;101289.03;5050050;23;20003;-76
2022/10/05 06:24:34;;;;;;;4.07;1.77;;;16.40;99.90;;;15.74;100.00;101280.88;5098595;23;20084;-76
2022/10/05 06:27:24;;;;;;;3.17;2.05;;;16.40;99.90;;;15.74;100.00;101289.66;5098598;23;20009;-76
2022/10/05 06:29:55;;;;;;;4.07;1.70;;;16.40;99.90;;;15.72;100.00;101273.06;5099725;23;20012;-76
2022/10/05 06:32:19;;;;;;;5.90;2.50;;;16.40;99.90;;;15.74;100.00;101286.19;5076965;23;20006;-76
2022/10/05 06:35:04;;;;;;;5.38;2.03;;;16.40;99.90;;;15.74;100.00;101291.53;5073755;23;20014;-76
2022/10/05 06:37:19;;;;;;;4.32;2.13;;;16.40;99.90;;;15.74;100.00;101291.53;5099137;23;20028;-76
2022/10/05 06:39:56;;;;;;;6.57;2.72;;;16.40;99.90;;;15.72;100.00;101291.69;5074801;23;20089;-76
2022/10/05 06:43:00;;;;;;;9.88;2.90;;;16.40;99.90;;;15.67;100.00;101296.72;5099674;23;20006;-76
2022/10/05 06:45:30;;;;;;;4.60;2.50;;;16.40;99.90;;;15.70;100.00;101306.16;4977918;23;20045;-76
2022/10/05 06:48:17;;;;;;;7.57;2.88;;;16.40;99.90;;;15.75;100.00;101294.00;4953877;24;20012;-76
2022/10/05 06:50:43;;;;;;;7.10;3.15;;;16.40;99.90;;;15.81;100.00;101295.94;5050962;23;20017;-76
2022/10/05 06:53:30;;;;;;;6.55;2.75;;;16.50;99.90;;;15.95;100.00;101304.97;5076393;23;20061;-76
2022/10/05 06:56:07;;;;;;;7.28;2.78;;;16.60;99.90;;;15.99;100.00;101307.13;5099608;23;20009;-76
2022/10/05 06:58:25;;;;;;;6.60;3.20;;;16.60;99.90;;;16.09;100.00;101311.38;5099469;23;20060;-76
2022/10/05 07:01:09;;;;;;;8.10;2.30;;;16.70;99.90;;;16.11;100.00;101312.88;5099567;23;20006;-76
2022/10/05 07:03:44;;;;;;;6.90;3.38;;;16.80;99.90;;;16.09;100.00;101320.22;5077942;23;20006;-76
2022/10/05 07:05:52;;;;;;;;;;;16.80;99.90;;;16.11;100.00;101317.34;5099922;23;20338;-76
2022/10/05 07:08:00;;;;;;;5.20;2.88;;;16.80;99.90;;;16.17;100.00;101313.97;5050394;23;20339;-76
2022/10/05 07:10:23;;;;;;;8.02;3.25;;;16.80;99.90;;;16.24;100.00;101313.09;5074261;23;20056;-76
2022/10/05 07:13:21;;;;;;;6.88;3.20;;;16.90;99.90;;;16.27;100.00;101320.75;5077375;23;20065;-76
2022/10/05 07:15:52;;;;;;;9.50;4.15;;;16.90;99.90;;;16.23;100.00;101323.91;4977127;23;20158;-77
2022/10/05 07:18:23;;;;;;;6.20;3.30;;;16.90;99.90;;;16.18;100.00;101320.97;5091273;23;20009;-77
2022/10/05 07:21:33;;;;;;;8.23;3.83;;;16.90;99.90;;;16.20;100.00;101318.94;5099606;23;20009;-77
2022/10/05 07:23:55;;;;;;;6.55;4.10;;;16.90;99.90;;;16.39;100.00;101324.63;5020273;23;20088;-76
2022/10/05 07:26:25;;;;;;;9.18;4.15;;;17.10;99.90;;;16.38;100.00;101327.47;5099276;23;20005;-75
2022/10/05 07:29:11;;;;;;;7.78;3.65;;;17.10;99.90;;;16.34;100.00;101331.47;5052772;23;20097;-77
2022/10/05 07:31:26;;;;;;;7.32;3.75;;;17.10;99.90;;;16.18;100.00;101329.78;5072930;23;20017;-76
2022/10/05 07:33:53;;;;;;;11.88;3.42;;;17.00;99.90;;;16.19;100.00;101333.28;5098712;23;20044;-76
2022/10/05 07:39:23;;;;;;;10.05;3.25;;;16.90;99.90;;;16.04;100.00;101331.38;5078428;23;20481;-76
2022/10/05 07:41:39;;;;;;;9.80;3.85;;;16.80;99.90;;;16.08;100.00;101342.50;5049776;23;20042;-77
2022/10/05 07:43:47;;;;;;;6.28;3.13;;;16.80;99.90;;;16.29;100.00;101353.31;5073339;23;20025;-78
2022/10/05 07:45:54;;;;;;;6.65;2.92;;;16.90;99.90;;;16.42;100.00;101352.72;5098437;23;20006;-77
2022/10/05 07:48:22;;;;;;;12.43;3.42;;;17.00;99.90;;;16.49;100.00;101357.16;5099090;23;20385;-78
2022/10/05 07:50:46;;;;;;;8.02;3.05;;;17.10;99.90;;;16.49;100.00;101341.16;5072835;23;20010;-78
2022/10/05 07:52:59;;;;;;;10.15;2.30;;;17.10;99.90;;;16.62;100.00;101351.25;5073100;23;20009;-78
2022/10/05 07:55:16;;;;;;;8.30;2.20;;;17.20;99.90;;;16.76;100.00;101357.59;5049210;23;20101;-77
2022/10/05 07:57:49;;;;;;;5.75;1.95;;;17.40;99.90;;;16.86;100.00;101353.69;5098631;23;20013;-76
2022/10/05 08:00:55;;;;;;;5.78;1.75;;;17.50;99.90;;;17.02;100.00;101342.03;5050263;23;20499;-76
2022/10/05 08:03:12;;;;;;;8.98;1.75;;;17.60;99.90;;;17.09;100.00;101354.44;5072682;23;20010;-76
2022/10/05 08:05:28;;;;;;;7.45;2.03;;;17.70;99.90;;;17.08;100.00;101357.28;5072085;23;20037;-76
2022/10/05 08:07:33;;;;;;;6.00;2.05;;;17.70;99.90;;;17.12;100.00;101358.56;5098980;23;20191;-77
2022/10/05 08:09:57;;;;;;;5.10;1.65;;;17.70;99.90;;;17.13;100.00;101354.91;5049479;23;20347;-77
2022/10/05 08:12:52;;;;;;;5.80;1.73;;;17.80;99.90;;;17.08;100.00;101355.44;5049517;23;20014;-76
2022/10/05 08:15:15;;;;;;;7.35;2.17;;;17.70;99.90;;;17.05;100.00;101355.78;5000895;23;20094;-76
2022/10/05 08:17:30;;;;;;;5.05;1.40;;;17.80;99.90;;;17.17;97.01;101356.19;5072762;23;20002;-77
2022/10/05 08:20:05;;;;;;;4.45;1.50;;;17.80;99.90;;;17.42;97.04;101365.53;5074944;23;20051;-77
2022/10/05 08:22:11;;;;;;;2.92;1.38;;;18.00;99.90;;;17.60;94.55;101347.34;5098828;23;20012;-77
2022/10/05 08:24:29;;;;;;;5.28;1.10;;;18.20;99.90;;;17.67;92.28;101358.94;5073380;23;20057;-76
2022/10/05 08:26:54;;;;;;;6.30;1.65;;;18.30;99.90;;;17.68;92.19;101355.22;5076136;23;20076;-75
2022/10/05 08:29:21;;;;;;;;;;;18.30;99.90;;;17.83;91.16;101359.72;5075232;23;20013;-76
2022/10/05 08:31:36;;;;;;;4.90;1.25;;;18.40;99.90;;;17.96;91.44;101362.53;5091069;23;19911;-76
2022/10/05 08:34:00;;;;;;;4.72;1.48;;;18.60;99.90;;;18.07;89.32;101362.06;5073254;23;20009;-76
2022/10/05 08:36:13;;;;;;;4.75;1.45;;;18.60;99.90;;;18.12;90.53;101365.81;5073866;23;20040;-76
2022/10/05 08:38:19;;;;;;;4.38;1.40;;;18.80;99.90;;;17.99;91.37;101365.66;5073052;23;20029;-76
2022/10/05 08:41:12;;;;;;;6.03;1.75;;;18.80;99.90;;;18.13;91.21;101375.44;5073424;23;20014;-76
2022/10/05 08:43:49;;;;;;;3.28;1.60;;;18.80;99.90;;;18.19;91.63;101382.69;5098671;23;20005;-76
2022/10/05 08:46:17;;;;;;;4.18;1.58;;;18.90;99.90;;;18.25;91.44;101381.09;5098359;23;20016;-76
2022/10/05 08:48:36;;;;;;;2.40;1.38;;;19.00;99.90;;;18.25;90.19;101386.44;5073480;23;20002;-76
2022/10/05 08:50:53;;;;;;;4.28;1.25;;;19.00;99.90;;;18.18;90.54;101383.72;5098822;23;20032;-76
2022/10/05 08:53:31;;;;;;;4.93;1.80;;;19.00;99.90;;;18.20;91.23;101391.53;5098623;23;20008;-76
2022/10/05 08:55:52;;;;;;;6.60;1.33;;;19.00;99.90;;;18.23;90.67;101385.81;5098777;23;20001;-76
2022/10/05 08:58:57;;;;;;;5.20;2.03;;;19.00;99.90;;;18.33;91.38;101388.19;5098447;23;20080;-76
2022/10/05 09:01:03;;;;;;;7.45;1.33;;;19.00;99.90;;;18.23;91.44;101388.50;5027864;23;20014;-76
2022/10/05 09:03:33;;;;;;;7.30;1.98;;;19.00;99.90;;;18.36;92.04;101396.66;5099208;23;20006;-76
2022/10/05 09:06:20;;;;;;;6.15;1.48;;;19.10;99.90;;;18.43;90.22;101396.72;5072131;23;20052;-76
2022/10/05 09:08:24;;;;;;;6.68;1.35;;;19.20;99.90;;;18.57;89.76;101404.69;5098588;23;20001;-76
2022/10/05 09:10:28;;;;;;;3.35;1.30;;;19.20;99.90;;;18.50;89.07;101406.47;5098527;23;20012;-75
2022/10/05 09:13:05;;;;;;;4.15;1.10;;;19.30;99.90;;;18.55;89.07;101398.69;5098483;23;20001;-76
2022/10/05 09:15:39;;;;;;;3.63;1.23;;;19.20;99.90;;;18.58;88.90;101405.50;5098477;23;20335;-76
2022/10/05 09:18:20;;;;;;;3.05;1.20;;;19.30;99.90;;;18.59;88.61;101396.47;5051301;23;20018;-76
2022/10/05 09:20:34;;;;;;;8.00;1.85;;;19.30;99.90;;;18.63;88.75;101405.75;5094417;23;20011;-77
2022/10/05 09:22:46;;;;;;;;;;;19.40;99.90;;;18.74;88.37;101403.41;5096731;23;20029;-76
2022/10/05 09:24:52;;;;;;;6.05;1.30;;;19.40;99.90;;;18.93;87.49;101403.75;5073004;23;19911;-76
2022/10/05 09:26:59;;;;;;;7.22;1.50;;;19.60;99.90;;;19.02;87.55;101405.25;5071318;23;20386;-76
2022/10/05 09:29:37;;;;;;;4.97;1.80;;;19.70;99.90;;;19.12;85.79;101397.69;5097564;23;20449;-75
2022/10/05 09:32:08;;;;;;;5.15;1.70;;;19.80;99.90;;;19.18;85.12;101413.78;5072897;23;20542;-76
2022/10/05 09:34:38;;;;;;;5.63;1.05;;;19.90;99.90;;;19.27;85.43;101409.94;5071888;23;20006;-76
2022/10/05 09:37:11;;;;;;;4.18;1.50;;;20.00;99.90;;;19.22;85.49;101415.06;5070873;23;20014;-76
2022/10/05 09:39:38;;;;;;;7.47;1.52;;;20.00;99.90;;;19.28;85.00;101418.81;5097125;23;20181;-76
2022/10/05 09:42:23;;;;;;;5.30;1.60;;;20.00;99.90;;;19.26;85.23;101415.50;5073253;23;20355;-76
2022/10/05 09:45:20;;;;;;;2.22;0.93;;;20.00;99.90;;;19.34;83.42;101407.31;4998290;23;20526;-76
2022/10/05 09:48:13;;;;;;;7.75;1.38;;;20.10;99.90;;;19.36;83.41;101418.63;5096480;23;20017;-77
2022/10/05 09:50:57;;;;;;;4.93;1.85;;;20.10;99.90;;;19.21;80.01;101417.91;5097298;23;20001;-76
2022/10/05 09:53:31;;;;;;;6.65;1.42;;;20.20;99.90;;;19.35;81.56;101419.69;5096800;23;20072;-76
2022/10/05 09:55:50;;;;;;;7.40;1.98;;;20.10;99.90;;;19.37;79.26;101417.63;5071492;23;20014;-76
2022/10/05 09:58:16;;;;;;;9.43;1.60;;;20.10;99.90;;;19.35;79.01;101428.50;5046923;23;20018;-76